Time,TemperatureF,DewpointF,PressureIn,WindDirection,WindDirectionDegrees,WindSpeedMPH,WindSpeedGustMPH,Humidity,HourlyPrecipIn,Conditions,Clouds,dailyrainin,SoftwareType,DateUTC
2013-06-01 00:05:00,74.7,65.1,29.90,North,-999,0.0,0.0,72,0.00,,,-99.99,WeatherLink 5.7,2013-06-01 04:05:00,
2013-06-01 00:15:00,74.6,65.4,29.90,North,-999,0.0,0.0,73,0.00,,,-99.99,WeatherLink 5.7,2013-06-01 04:15:00,
2013-06-01 00:20:00,74.4,65.2,29.90,North,-999,0.0,0.0,73,0.00,,,-99.99,WeatherLink 5.7,2013-06-01 04:20:00,
2013-06-01 00:25:00,74.2,65.0,29.90,SSW,202,0.0,1.0,73,0.00,,,-99.99,WeatherLink 5.7,2013-06-01 04:25:00,
2013-06-01 00:35:00,73.9,64.7,29.90,North,-999,0.0,0.0,73,0.00,,,-99.99,WeatherLink 5.7,2013-06-01 04:35:00,
2013-06-01 00:45:00,74.0,64.8,29.90,South,180,0.0,1.0,73,0.00,,,-99.99,WeatherLink 5.7,2013-06-01 04:45:00,
2013-06-01 00:50:00,73.9,64.7,29.90,North,-999,0.0,0.0,73,0.00,,,-99.99,WeatherLink 5.7,2013-06-01 04:50:00,
2013-06-01 01:00:00,73.5,64.7,29.90,North,-999,0.0,0.0,74,0.00,,,-99.99,WeatherLink 5.7,2013-06-01 05:00:00,
2013-06-01 01:10:00,73.2,64.8,29.89,North,-999,0.0,0.0,75,0.00,,,-99.99,WeatherLink 5.7,2013-06-01 05:10:00,
2013-06-01 01:20:00,72.8,64.4,29.89,North,-999,0.0,0.0,75,0.00,,,-99.99,WeatherLink 5.7,2013-06-01 05:20:00,
2013-06-01 01:30:00,72.5,64.5,29.89,North,-999,0.0,0.0,76,0.00,,,-99.99,WeatherLink 5.7,2013-06-01 05:30:00,
2013-06-01 01:40:00,72.1,64.1,29.89,North,-999,0.0,0.0,76,0.00,,,-99.99,WeatherLink 5.7,2013-06-01 05:40:00,
2013-06-01 01:45:00,72.0,64.4,29.89,North,-999,0.0,0.0,77,0.00,,,-99.99,WeatherLink 5.7,2013-06-01 05:45:00,
2013-06-01 01:55:00,71.6,64.4,29.88,North,-999,0.0,0.0,78,0.00,,,-99.99,WeatherLink 5.7,2013-06-01 05:55:00,
2013-06-01 02:05:00,71.3,64.4,29.88,North,-999,0.0,0.0,79,0.00,,,-99.99,WeatherLink 5.7,2013-06-01 06:05:00,
2013-06-01 02:15:00,70.9,64.4,29.88,North,-999,0.0,0.0,80,0.00,,,-99.99,WeatherLink 5.7,2013-06-01 06:15:00,
2013-06-01 02:20:00,70.6,64.5,29.88,North,-999,0.0,0.0,81,0.00,,,-99.99,WeatherLink 5.7,2013-06-01 06:20:00,
2013-06-01 02:30:00,70.1,64.7,29.88,North,-999,0.0,0.0,83,0.00,,,-99.99,WeatherLink 5.7,2013-06-01 06:30:00,
2013-06-01 02:40:00,69.6,64.5,29.88,North,-999,0.0,0.0,84,0.00,,,-99.99,WeatherLink 5.7,2013-06-01 06:40:00,
2013-06-01 02:50:00,69.3,64.6,29.88,North,-999,0.0,0.0,85,0.00,,,-99.99,WeatherLink 5.7,2013-06-01 06:50:00,
2013-06-01 03:00:00,68.8,64.4,29.88,North,-999,0.0,0.0,86,0.00,,,-99.99,WeatherLink 5.7,2013-06-01 07:00:00,
2013-06-01 03:10:00,68.4,64.0,29.88,North,-999,0.0,0.0,86,0.00,,,-99.99,WeatherLink 5.7,2013-06-01 07:10:00,
2013-06-01 03:20:00,68.3,64.3,29.88,North,-999,0.0,0.0,87,0.00,,,-99.99,WeatherLink 5.7,2013-06-01 07:20:00,
2013-06-01 03:30:00,67.9,63.6,29.88,North,-999,0.0,0.0,86,0.00,,,-99.99,WeatherLink 5.7,2013-06-01 07:30:00,
2013-06-01 03:35:00,67.8,63.5,29.88,North,-999,0.0,0.0,86,0.00,,,-99.99,WeatherLink 5.7,2013-06-01 07:35:00,
2013-06-01 03:45:00,67.6,63.6,29.88,North,-999,0.0,0.0,87,0.00,,,-99.99,WeatherLink 5.7,2013-06-01 07:45:00,
2013-06-01 03:55:00,67.3,63.3,29.88,North,-999,0.0,0.0,87,0.00,,,-99.99,WeatherLink 5.7,2013-06-01 07:55:00,
2013-06-01 04:05:00,67.1,63.4,29.88,North,-999,0.0,0.0,88,0.00,,,-99.99,WeatherLink 5.7,2013-06-01 08:05:00,
2013-06-01 04:10:00,67.1,63.4,29.88,North,-999,0.0,0.0,88,0.00,,,-99.99,WeatherLink 5.7,2013-06-01 08:10:00,
2013-06-01 04:20:00,66.9,63.6,29.88,North,-999,0.0,0.0,89,0.00,,,-99.99,WeatherLink 5.7,2013-06-01 08:20:00,
2013-06-01 04:25:00,66.8,63.5,29.88,North,-999,0.0,0.0,89,0.00,,,-99.99,WeatherLink 5.7,2013-06-01 08:25:00,
2013-06-01 04:35:00,66.4,63.1,29.88,North,-999,0.0,0.0,89,0.00,,,-99.99,WeatherLink 5.7,2013-06-01 08:35:00,
2013-06-01 04:45:00,66.3,63.0,29.88,North,-999,0.0,0.0,89,0.00,,,-99.99,WeatherLink 5.7,2013-06-01 08:45:00,
2013-06-01 04:50:00,66.3,63.3,29.88,North,-999,0.0,0.0,90,0.00,,,-99.99,WeatherLink 5.7,2013-06-01 08:50:00,
2013-06-01 04:55:00,66.1,63.1,29.88,North,-999,0.0,0.0,90,0.00,,,-99.99,WeatherLink 5.7,2013-06-01 08:55:00,
2013-06-01 05:05:00,66.0,63.3,29.88,North,-999,0.0,0.0,91,0.00,,,-99.99,WeatherLink 5.7,2013-06-01 09:05:00,
2013-06-01 05:15:00,65.8,63.1,29.88,North,-999,0.0,0.0,91,0.00,,,-99.99,WeatherLink 5.7,2013-06-01 09:15:00,
2013-06-01 05:20:00,65.6,62.9,29.89,North,-999,0.0,0.0,91,0.00,,,-99.99,WeatherLink 5.7,2013-06-01 09:20:00,
2013-06-01 05:30:00,65.5,62.8,29.89,North,-999,0.0,0.0,91,0.00,,,-99.99,WeatherLink 5.7,2013-06-01 09:30:00,
2013-06-01 05:40:00,65.3,62.9,29.89,North,-999,0.0,0.0,92,0.00,,,-99.99,WeatherLink 5.7,2013-06-01 09:40:00,
2013-06-01 05:45:00,65.3,62.9,29.89,North,-999,0.0,0.0,92,0.00,,,-99.99,WeatherLink 5.7,2013-06-01 09:45:00,
2013-06-01 05:55:00,65.2,62.8,29.89,North,-999,0.0,0.0,92,0.00,,,-99.99,WeatherLink 5.7,2013-06-01 09:55:00,
2013-06-01 06:05:00,65.3,62.9,29.89,North,-999,0.0,0.0,92,0.00,,,-99.99,WeatherLink 5.7,2013-06-01 10:05:00,
2013-06-01 06:10:00,65.3,62.9,29.89,North,-999,0.0,0.0,92,0.00,,,-99.99,WeatherLink 5.7,2013-06-01 10:10:00,
2013-06-01 06:20:00,65.5,63.1,29.89,North,-999,0.0,0.0,92,0.00,,,-99.99,WeatherLink 5.7,2013-06-01 10:20:00,
2013-06-01 06:30:00,65.6,63.2,29.89,North,-999,0.0,0.0,92,0.00,,,-99.99,WeatherLink 5.7,2013-06-01 10:30:00,
2013-06-01 06:40:00,65.8,63.4,29.90,North,-999,0.0,0.0,92,0.00,,,-99.99,WeatherLink 5.7,2013-06-01 10:40:00,
2013-06-01 06:46:00,65.8,63.4,29.90,North,-999,0.0,0.0,92,0.00,,,-99.99,WeatherLink 5.7,2013-06-01 10:46:00,
2013-06-01 06:55:00,66.3,63.9,29.89,North,-999,0.0,0.0,92,0.00,,,-99.99,WeatherLink 5.7,2013-06-01 10:55:00,
2013-06-01 07:00:00,66.4,63.7,29.89,North,-999,0.0,0.0,91,0.00,,,-99.99,WeatherLink 5.7,2013-06-01 11:00:00,
2013-06-01 07:05:00,66.8,64.1,29.89,North,-999,0.0,0.0,91,0.00,,,-99.99,WeatherLink 5.7,2013-06-01 11:05:00,
2013-06-01 07:15:00,67.6,64.2,29.89,North,-999,0.0,0.0,89,0.00,,,-99.99,WeatherLink 5.7,2013-06-01 11:15:00,
2013-06-01 07:25:00,68.6,64.2,29.89,North,-999,0.0,0.0,86,0.00,,,-99.99,WeatherLink 5.7,2013-06-01 11:25:00,
2013-06-01 07:30:00,69.3,64.3,29.89,North,-999,0.0,0.0,84,0.00,,,-99.99,WeatherLink 5.7,2013-06-01 11:30:00,
2013-06-01 07:40:00,70.3,64.9,29.89,North,-999,0.0,0.0,83,0.00,,,-99.99,WeatherLink 5.7,2013-06-01 11:40:00,
2013-06-01 07:45:00,70.8,64.7,29.89,SW,225,0.0,2.0,81,0.00,,,-99.99,WeatherLink 5.7,2013-06-01 11:45:00,
2013-06-01 07:55:00,71.8,65.7,29.89,SW,225,0.0,1.0,81,0.00,,,-99.99,WeatherLink 5.7,2013-06-01 11:55:00,
2013-06-01 08:05:00,72.5,66.0,29.89,North,-999,0.0,0.0,80,0.00,,,-99.99,WeatherLink 5.7,2013-06-01 12:05:00,
2013-06-01 08:15:00,73.5,65.5,29.89,SW,225,0.0,2.0,76,0.00,,,-99.99,WeatherLink 5.7,2013-06-01 12:15:00,
2013-06-01 08:25:00,74.7,65.1,29.89,SSE,157,0.0,2.0,72,0.00,,,-99.99,WeatherLink 5.7,2013-06-01 12:25:00,
2013-06-01 08:35:00,77.0,66.0,29.89,North,-999,0.0,0.0,69,0.00,,,-99.99,WeatherLink 5.7,2013-06-01 12:35:00,
2013-06-01 08:36:00,76.1,65.6,29.89,North,-999,0.0,0.0,70,0.00,,,-99.99,WeatherLink 5.7,2013-06-01 12:36:00,
2013-06-01 08:45:00,78.6,65.4,29.89,SSE,157,0.0,2.0,64,0.00,,,-99.99,WeatherLink 5.7,2013-06-01 12:45:00,
2013-06-01 08:46:00,77.7,65.9,29.89,North,-999,0.0,0.0,67,0.00,,,-99.99,WeatherLink 5.7,2013-06-01 12:46:00,
2013-06-01 08:55:00,80.9,66.7,29.89,North,-999,0.0,0.0,62,0.00,,,-99.99,WeatherLink 5.7,2013-06-01 12:55:00,
2013-06-01 08:56:00,79.8,66.1,29.89,SSE,157,0.0,2.0,63,0.00,,,-99.99,WeatherLink 5.7,2013-06-01 12:56:00,
2013-06-01 09:00:00,82.0,65.8,29.89,NNE,22,0.0,1.0,58,0.00,,,-99.99,WeatherLink 5.7,2013-06-01 13:00:00,
2013-06-01 09:11:00,83.0,66.7,29.89,SW,225,1.0,3.0,58,0.00,,,-99.99,WeatherLink 5.7,2013-06-01 13:11:00,
2013-06-01 09:20:00,84.7,64.6,29.89,North,0,1.0,3.0,51,0.00,,,-99.99,WeatherLink 5.7,2013-06-01 13:20:00,
2013-06-01 09:30:00,86.1,65.3,29.89,WSW,247,1.0,5.0,50,0.00,,,-99.99,WeatherLink 5.7,2013-06-01 13:30:00,
2013-06-01 09:36:00,87.0,64.9,29.89,ENE,67,0.0,3.0,48,0.00,,,-99.99,WeatherLink 5.7,2013-06-01 13:36:00,
2013-06-01 09:46:00,88.0,65.8,29.89,West,270,0.0,2.0,48,0.00,,,-99.99,WeatherLink 5.7,2013-06-01 13:46:00,
2013-06-01 09:55:00,89.0,64.9,29.89,WSW,247,1.0,3.0,45,0.00,,,-99.99,WeatherLink 5.7,2013-06-01 13:55:00,
2013-06-01 10:00:00,89.7,65.5,29.89,SW,225,1.0,2.0,45,0.00,,,-99.99,WeatherLink 5.7,2013-06-01 14:00:00,
2013-06-01 10:05:00,89.7,66.8,29.88,SW,225,1.0,4.0,47,0.00,,,-99.99,WeatherLink 5.7,2013-06-01 14:05:00,
2013-06-01 10:15:00,91.0,64.7,29.88,SSE,157,0.0,2.0,42,0.00,,,-99.99,WeatherLink 5.7,2013-06-01 14:15:00,
2013-06-01 10:25:00,93.2,64.6,29.88,WSW,247,1.0,3.0,39,0.00,,,-99.99,WeatherLink 5.7,2013-06-01 14:25:00,
2013-06-01 10:30:00,94.0,64.5,29.88,NW,315,1.0,5.0,38,0.00,,,-99.99,WeatherLink 5.7,2013-06-01 14:30:00,
2013-06-01 10:40:00,94.9,64.6,29.88,SSW,202,1.0,3.0,37,0.00,,,-99.99,WeatherLink 5.7,2013-06-01 14:40:00,
2013-06-01 10:50:00,94.9,61.3,29.88,WSW,247,1.0,3.0,33,0.00,,,-99.99,WeatherLink 5.7,2013-06-01 14:50:00,
2013-06-01 10:56:00,94.9,63.0,29.88,West,270,1.0,5.0,35,0.00,,,-99.99,WeatherLink 5.7,2013-06-01 14:56:00,
2013-06-01 11:05:00,94.3,64.8,29.87,South,180,1.0,5.0,38,0.00,,,-99.99,WeatherLink 5.7,2013-06-01 15:05:00,
2013-06-01 11:10:00,94.5,63.4,29.87,South,180,1.0,3.0,36,0.00,,,-99.99,WeatherLink 5.7,2013-06-01 15:10:00,
2013-06-01 11:20:00,94.3,61.6,29.87,SSW,202,2.0,5.0,34,0.00,,,-99.99,WeatherLink 5.7,2013-06-01 15:20:00,
2013-06-01 11:30:00,94.3,62.4,29.87,SSW,202,3.0,12.0,35,0.00,,,-99.99,WeatherLink 5.7,2013-06-01 15:30:00,
2013-06-01 11:40:00,92.1,62.8,29.87,WNW,292,2.0,6.0,38,0.00,,,-99.99,WeatherLink 5.7,2013-06-01 15:40:00,
2013-06-01 11:50:00,93.4,60.8,29.87,South,180,2.0,5.0,34,0.00,,,-99.99,WeatherLink 5.7,2013-06-01 15:50:00,
2013-06-01 12:01:00,94.5,59.2,29.87,ENE,67,1.0,6.0,31,0.00,,,-99.99,WeatherLink 5.7,2013-06-01 16:01:00,
2013-06-01 12:10:00,95.1,56.9,29.86,West,270,2.0,7.0,28,0.00,,,-99.99,WeatherLink 5.7,2013-06-01 16:10:00,
2013-06-01 12:20:00,95.6,59.2,29.85,West,270,2.0,5.0,30,0.00,,,-99.99,WeatherLink 5.7,2013-06-01 16:20:00,
2013-06-01 12:30:00,95.6,60.1,29.85,SE,135,2.0,6.0,31,0.00,,,-99.99,WeatherLink 5.7,2013-06-01 16:30:00,
2013-06-01 12:40:00,94.7,59.4,29.85,ESE,112,2.0,8.0,31,0.00,,,-99.99,WeatherLink 5.7,2013-06-01 16:40:00,
2013-06-01 12:50:00,94.0,60.5,29.84,SSW,202,2.0,5.0,33,0.00,,,-99.99,WeatherLink 5.7,2013-06-01 16:50:00,
2013-06-01 13:00:00,93.2,60.7,29.84,South,180,3.0,14.0,34,0.00,,,-99.99,WeatherLink 5.7,2013-06-01 17:00:00,
2013-06-01 13:10:00,92.9,60.4,29.83,SW,225,2.0,7.0,34,0.00,,,-99.99,WeatherLink 5.7,2013-06-01 17:10:00,
2013-06-01 13:20:00,93.2,62.3,29.83,South,180,2.0,7.0,36,0.00,,,-99.99,WeatherLink 5.7,2013-06-01 17:20:00,
2013-06-01 13:30:00,94.5,61.0,29.83,SW,225,2.0,4.0,33,0.00,,,-99.99,WeatherLink 5.7,2013-06-01 17:30:00,
2013-06-01 13:35:00,94.9,57.7,29.83,WNW,292,2.0,10.0,29,0.00,,,-99.99,WeatherLink 5.7,2013-06-01 17:35:00,
2013-06-01 13:40:00,94.9,59.5,29.83,West,270,2.0,10.0,31,0.00,,,-99.99,WeatherLink 5.7,2013-06-01 17:40:00,
2013-06-01 13:50:00,95.6,58.3,29.83,SSW,202,2.0,6.0,29,0.00,,,-99.99,WeatherLink 5.7,2013-06-01 17:50:00,
2013-06-01 14:00:00,95.1,61.5,29.83,WSW,247,2.0,11.0,33,0.00,,,-99.99,WeatherLink 5.7,2013-06-01 18:00:00,
2013-06-01 14:10:00,95.1,56.9,29.83,SW,225,2.0,6.0,28,0.00,,,-99.99,WeatherLink 5.7,2013-06-01 18:10:00,
2013-06-01 14:20:00,95.1,59.7,29.82,West,270,2.0,7.0,31,0.00,,,-99.99,WeatherLink 5.7,2013-06-01 18:20:00,
2013-06-01 14:30:00,94.3,58.1,29.82,West,270,3.0,6.0,30,0.00,,,-99.99,WeatherLink 5.7,2013-06-01 18:30:00,
2013-06-01 14:40:00,94.9,61.3,29.82,WNW,292,2.0,5.0,33,0.00,,,-99.99,WeatherLink 5.7,2013-06-01 18:40:00,
2013-06-01 14:45:00,95.6,56.3,29.82,West,270,2.0,7.0,27,0.00,,,-99.99,WeatherLink 5.7,2013-06-01 18:45:00,
2013-06-01 14:55:00,95.6,58.3,29.81,South,180,2.0,7.0,29,0.00,,,-99.99,WeatherLink 5.7,2013-06-01 18:55:00,
2013-06-01 15:05:00,95.6,56.3,29.81,WSW,247,3.0,7.0,27,0.00,,,-99.99,WeatherLink 5.7,2013-06-01 19:05:00,
2013-06-01 15:06:00,95.4,57.1,29.81,West,270,2.0,7.0,28,0.00,,,-99.99,WeatherLink 5.7,2013-06-01 19:06:00,
2013-06-01 15:15:00,95.4,58.1,29.81,SSE,157,1.0,6.0,29,0.00,,,-99.99,WeatherLink 5.7,2013-06-01 19:15:00,
2013-06-01 15:25:00,95.4,56.1,29.81,WNW,292,2.0,6.0,27,0.00,,,-99.99,WeatherLink 5.7,2013-06-01 19:25:00,
2013-06-01 15:35:00,95.9,57.6,29.80,NNW,337,1.0,4.0,28,0.00,,,-99.99,WeatherLink 5.7,2013-06-01 19:35:00,
2013-06-01 15:41:00,95.6,57.3,29.80,WSW,247,1.0,7.0,28,0.00,,,-99.99,WeatherLink 5.7,2013-06-01 19:41:00,
2013-06-01 15:50:00,95.1,56.9,29.80,WSW,247,3.0,8.0,28,0.00,,,-99.99,WeatherLink 5.7,2013-06-01 19:50:00,
2013-06-01 15:55:00,94.3,59.0,29.80,WSW,247,2.0,7.0,31,0.00,,,-99.99,WeatherLink 5.7,2013-06-01 19:55:00,
2013-06-01 16:05:00,93.8,58.6,29.80,WSW,247,2.0,6.0,31,0.00,,,-99.99,WeatherLink 5.7,2013-06-01 20:05:00,
2013-06-01 16:15:00,93.6,58.4,29.80,WSW,247,3.0,9.0,31,0.00,,,-99.99,WeatherLink 5.7,2013-06-01 20:15:00,
2013-06-01 16:20:00,93.6,61.0,29.80,North,0,2.0,6.0,34,0.00,,,-99.99,WeatherLink 5.7,2013-06-01 20:20:00,
2013-06-01 16:30:00,93.2,60.7,29.80,South,180,2.0,6.0,34,0.00,,,-99.99,WeatherLink 5.7,2013-06-01 20:30:00,
2013-06-01 16:40:00,92.9,62.8,29.80,WSW,247,2.0,6.0,37,0.00,,,-99.99,WeatherLink 5.7,2013-06-01 20:40:00,
2013-06-01 16:50:00,92.9,62.8,29.79,NNW,337,1.0,3.0,37,0.00,,,-99.99,WeatherLink 5.7,2013-06-01 20:50:00,
2013-06-01 16:55:00,92.5,62.4,29.79,SSW,202,2.0,7.0,37,0.00,,,-99.99,WeatherLink 5.7,2013-06-01 20:55:00,
2013-06-01 17:05:00,92.1,63.6,29.79,SW,225,1.0,5.0,39,0.00,,,-99.99,WeatherLink 5.7,2013-06-01 21:05:00,
2013-06-01 17:06:00,92.1,62.1,29.79,NNE,22,2.0,5.0,37,0.00,,,-99.99,WeatherLink 5.7,2013-06-01 21:06:00,
2013-06-01 17:10:00,92.1,62.1,29.79,West,270,2.0,6.0,37,0.00,,,-99.99,WeatherLink 5.7,2013-06-01 21:10:00,
2013-06-01 17:20:00,92.1,62.8,29.79,SSW,202,1.0,3.0,38,0.00,,,-99.99,WeatherLink 5.7,2013-06-01 21:20:00,
2013-06-01 17:25:00,91.6,63.1,29.79,NE,45,1.0,3.0,39,0.00,,,-99.99,WeatherLink 5.7,2013-06-01 21:25:00,
2013-06-01 17:35:00,91.2,62.8,29.79,South,180,2.0,4.0,39,0.00,,,-99.99,WeatherLink 5.7,2013-06-01 21:35:00,
2013-06-01 17:40:00,91.0,63.3,29.79,WSW,247,2.0,8.0,40,0.00,,,-99.99,WeatherLink 5.7,2013-06-01 21:40:00,
2013-06-01 17:50:00,90.3,64.1,29.78,SW,225,2.0,8.0,42,0.00,,,-99.99,WeatherLink 5.7,2013-06-01 21:50:00,
2013-06-01 17:56:00,89.9,65.1,29.78,WSW,247,2.0,10.0,44,0.00,,,-99.99,WeatherLink 5.7,2013-06-01 21:56:00,
2013-06-01 18:05:00,89.3,66.4,29.78,SSW,202,2.0,8.0,47,0.00,,,-99.99,WeatherLink 5.7,2013-06-01 22:05:00,
2013-06-01 18:10:00,88.6,66.4,29.78,SSW,202,2.0,6.0,48,0.00,,,-99.99,WeatherLink 5.7,2013-06-01 22:10:00,
2013-06-01 18:20:00,88.4,66.8,29.78,SW,225,2.0,6.0,49,0.00,,,-99.99,WeatherLink 5.7,2013-06-01 22:20:00,
2013-06-01 18:25:00,88.0,67.0,29.78,SW,225,2.0,6.0,50,0.00,,,-99.99,WeatherLink 5.7,2013-06-01 22:25:00,
2013-06-01 18:30:00,87.6,66.7,29.78,SW,225,2.0,5.0,50,0.00,,,-99.99,WeatherLink 5.7,2013-06-01 22:30:00,
2013-06-01 18:35:00,87.2,67.4,29.78,SSW,202,2.0,5.0,52,0.00,,,-99.99,WeatherLink 5.7,2013-06-01 22:35:00,
2013-06-01 18:40:00,87.0,67.2,29.78,SE,135,1.0,3.0,52,0.00,,,-99.99,WeatherLink 5.7,2013-06-01 22:40:00,
2013-06-01 18:45:00,86.5,67.3,29.79,SW,225,1.0,2.0,53,0.00,,,-99.99,WeatherLink 5.7,2013-06-01 22:45:00,
2013-06-01 18:50:00,86.1,67.0,29.79,SW,225,1.0,5.0,53,0.00,,,-99.99,WeatherLink 5.7,2013-06-01 22:50:00,
2013-06-01 18:55:00,85.9,67.3,29.79,SE,135,0.0,3.0,54,0.00,,,-99.99,WeatherLink 5.7,2013-06-01 22:55:00,
2013-06-01 19:00:00,85.5,67.5,29.79,NE,45,1.0,5.0,55,0.00,,,-99.99,WeatherLink 5.7,2013-06-01 23:00:00,
2013-06-01 19:05:00,85.1,67.6,29.79,East,90,1.0,5.0,56,0.00,,,-99.99,WeatherLink 5.7,2013-06-01 23:05:00,
2013-06-01 19:10:00,84.9,67.5,29.79,East,90,1.0,5.0,56,0.00,,,-99.99,WeatherLink 5.7,2013-06-01 23:10:00,
2013-06-01 19:15:00,84.7,67.8,29.79,SSW,202,1.0,10.0,57,0.00,,,-99.99,WeatherLink 5.7,2013-06-01 23:15:00,
2013-06-01 19:25:00,84.5,68.1,29.79,SSW,202,1.0,5.0,58,0.00,,,-99.99,WeatherLink 5.7,2013-06-01 23:25:00,
2013-06-01 19:30:00,84.0,68.1,29.80,South,180,1.0,6.0,59,0.00,,,-99.99,WeatherLink 5.7,2013-06-01 23:30:00,
2013-06-01 19:35:00,83.8,67.9,29.80,South,180,1.0,3.0,59,0.00,,,-99.99,WeatherLink 5.7,2013-06-01 23:35:00,
2013-06-01 19:40:00,83.6,68.2,29.80,ESE,112,0.0,2.0,60,0.00,,,-99.99,WeatherLink 5.7,2013-06-01 23:40:00,
2013-06-01 19:45:00,83.4,68.1,29.80,ENE,67,0.0,2.0,60,0.00,,,-99.99,WeatherLink 5.7,2013-06-01 23:45:00,
2013-06-01 19:55:00,83.0,68.2,29.80,ESE,112,1.0,5.0,61,0.00,,,-99.99,WeatherLink 5.7,2013-06-01 23:55:00,
2013-06-01 19:56:00,83.2,68.8,29.80,West,270,1.0,2.0,62,0.00,,,-99.99,WeatherLink 5.7,2013-06-01 23:56:00,
2013-06-01 20:00:00,82.8,68.4,29.80,South,180,1.0,5.0,62,0.00,,,-99.99,WeatherLink 5.7,2013-06-02 00:00:00,
2013-06-01 20:05:00,82.6,68.3,29.80,SE,135,1.0,3.0,62,0.00,,,-99.99,WeatherLink 5.7,2013-06-02 00:05:00,
2013-06-01 20:10:00,82.4,68.5,29.80,South,180,0.0,3.0,63,0.00,,,-99.99,WeatherLink 5.7,2013-06-02 00:10:00,
2013-06-01 20:20:00,82.2,68.3,29.80,SE,135,0.0,2.0,63,0.00,,,-99.99,WeatherLink 5.7,2013-06-02 00:20:00,
2013-06-01 20:30:00,81.8,68.4,29.80,East,90,1.0,4.0,64,0.00,,,-99.99,WeatherLink 5.7,2013-06-02 00:30:00,
2013-06-01 20:35:00,81.6,68.2,29.80,SSE,157,1.0,3.0,64,0.00,,,-99.99,WeatherLink 5.7,2013-06-02 00:35:00,
2013-06-01 20:45:00,81.2,68.3,29.80,SE,135,1.0,3.0,65,0.00,,,-99.99,WeatherLink 5.7,2013-06-02 00:45:00,
2013-06-01 20:50:00,81.1,67.8,29.80,SSW,202,0.0,2.0,64,0.00,,,-99.99,WeatherLink 5.7,2013-06-02 00:50:00,
2013-06-01 21:00:00,80.9,68.0,29.80,SW,225,0.0,3.0,65,0.00,,,-99.99,WeatherLink 5.7,2013-06-02 01:00:00,
2013-06-01 21:10:00,80.5,68.1,29.81,WSW,247,0.0,3.0,66,0.00,,,-99.99,WeatherLink 5.7,2013-06-02 01:10:00,
2013-06-01 21:20:00,80.1,67.7,29.81,SSE,157,0.0,2.0,66,0.00,,,-99.99,WeatherLink 5.7,2013-06-02 01:20:00,
2013-06-01 21:30:00,79.8,68.3,29.81,North,-999,0.0,0.0,68,0.00,,,-99.99,WeatherLink 5.7,2013-06-02 01:30:00,
2013-06-01 21:40:00,79.4,67.5,29.81,SSE,157,1.0,6.0,67,0.00,,,-99.99,WeatherLink 5.7,2013-06-02 01:40:00,
2013-06-01 21:50:00,79.0,67.5,29.81,SW,225,0.0,3.0,68,0.00,,,-99.99,WeatherLink 5.7,2013-06-02 01:50:00,
2013-06-01 22:00:00,78.6,67.6,29.81,ESE,112,0.0,3.0,69,0.00,,,-99.99,WeatherLink 5.7,2013-06-02 02:00:00,
2013-06-01 22:10:00,78.3,67.3,29.81,ESE,112,1.0,3.0,69,0.00,,,-99.99,WeatherLink 5.7,2013-06-02 02:10:00,
2013-06-01 22:20:00,78.1,67.1,29.81,SSW,202,1.0,6.0,69,0.00,,,-99.99,WeatherLink 5.7,2013-06-02 02:20:00,
2013-06-01 22:25:00,77.9,66.9,29.81,SSE,157,1.0,4.0,69,0.00,,,-99.99,WeatherLink 5.7,2013-06-02 02:25:00,
2013-06-01 22:35:00,77.7,66.7,29.81,WSW,247,1.0,5.0,69,0.00,,,-99.99,WeatherLink 5.7,2013-06-02 02:35:00,
2013-06-01 22:45:00,77.4,66.8,29.81,ENE,67,0.0,3.0,70,0.00,,,-99.99,WeatherLink 5.7,2013-06-02 02:45:00,
2013-06-01 22:50:00,77.2,66.7,29.81,SSE,157,0.0,2.0,70,0.00,,,-99.99,WeatherLink 5.7,2013-06-02 02:50:00,
2013-06-01 22:55:00,77.0,66.5,29.81,South,180,1.0,5.0,70,0.00,,,-99.99,WeatherLink 5.7,2013-06-02 02:55:00,
2013-06-01 23:05:00,76.7,66.6,29.81,ESE,112,0.0,2.0,71,0.00,,,-99.99,WeatherLink 5.7,2013-06-02 03:05:00,
2013-06-01 23:15:00,76.5,66.4,29.81,South,180,0.0,2.0,71,0.00,,,-99.99,WeatherLink 5.7,2013-06-02 03:15:00,
2013-06-01 23:25:00,76.1,66.4,29.81,ESE,112,0.0,3.0,72,0.00,,,-99.99,WeatherLink 5.7,2013-06-02 03:25:00,
2013-06-01 23:30:00,76.0,66.3,29.81,SSW,202,1.0,4.0,72,0.00,,,-99.99,WeatherLink 5.7,2013-06-02 03:30:00,
2013-06-01 23:40:00,75.8,66.5,29.81,SW,225,0.0,2.0,73,0.00,,,-99.99,WeatherLink 5.7,2013-06-02 03:40:00,
2013-06-01 23:50:00,75.4,66.5,29.80,SSW,202,1.0,3.0,74,0.00,,,-99.99,WeatherLink 5.7,2013-06-02 03:50:00,